Time;durP1;ratioP1;P1;durP2;ratioP2;P2;SDS_P1;SDS_P2;PMS_P1;PMS_P2;Temp;Humidity;BMP_temperature;BMP_pressure;BME280_temperature;BME280_humidity;BME280_pressure;Samples;Min_cycle;Max_cycle;Signal;HPM_P1;HPM_P2
2023/08/02 00:01:02;;;;;;;3.23;2.27;;;22.50;44.70;;;;;;5153908;27;20204;-53
2023/08/02 00:03:28;;;;;;;5.93;2.60;;;22.50;45.10;;;;;;5154314;27;20531;-53
2023/08/02 00:05:58;;;;;;;3.30;1.90;;;22.50;45.30;;;;;;5153012;27;20173;-50
2023/08/02 00:08:26;;;;;;;6.20;2.70;;;22.50;45.40;;;;;;5154202;27;20165;-53
2023/08/02 00:10:52;;;;;;;3.57;2.20;;;22.50;45.60;;;;;;5153764;27;20451;-53
2023/08/02 00:13:18;;;;;;;4.33;2.50;;;22.50;45.10;;;;;;5152799;27;20418;-50
2023/08/02 00:15:44;;;;;;;3.43;2.33;;;22.50;45.40;;;;;;5154153;27;20414;-51
2023/08/02 00:18:11;;;;;;;5.63;1.90;;;22.40;45.20;;;;;;5154191;27;20504;-52
2023/08/02 00:20:38;;;;;;;3.77;1.90;;;22.40;45.30;;;;;;5153726;27;20428;-53
2023/08/02 00:23:04;;;;;;;7.97;2.03;;;22.40;45.20;;;;;;5152763;27;20410;-52
2023/08/02 00:25:31;;;;;;;2.27;1.80;;;22.30;45.70;;;;;;5153876;27;20472;-53
2023/08/02 00:27:57;;;;;;;6.03;2.43;;;22.30;45.80;;;;;;5152641;27;20411;-52
2023/08/02 00:30:23;;;;;;;5.63;2.30;;;22.30;45.60;;;;;;5153532;27;21034;-52
2023/08/02 00:32:49;;;;;;;4.20;2.10;;;22.30;45.30;;;;;;5153905;27;20431;-51
2023/08/02 00:35:16;;;;;;;3.20;1.87;;;22.20;45.60;;;;;;5153878;27;20177;-53
2023/08/02 00:37:43;;;;;;;2.97;2.67;;;22.20;45.00;;;;;;5153860;27;20427;-51
2023/08/02 00:40:09;;;;;;;3.10;1.87;;;22.20;45.40;;;;;;5153270;27;20483;-53
2023/08/02 00:42:35;;;;;;;2.60;1.80;;;22.10;45.70;;;;;;5153718;27;20434;-53
2023/08/02 00:45:03;;;;;;;3.20;1.57;;;22.00;45.50;;;;;;5153720;27;20410;-51
2023/08/02 00:47:33;;;;;;;2.70;2.00;;;22.00;45.70;;;;;;5153685;27;20427;-52
2023/08/02 00:50:00;;;;;;;4.77;2.80;;;22.00;46.10;;;;;;5153217;27;20459;-53
2023/08/02 00:52:26;;;;;;;3.93;2.00;;;21.90;46.20;;;;;;5153625;27;20446;-51
2023/08/02 00:54:52;;;;;;;3.10;2.13;;;21.90;46.40;;;;;;5153443;27;20486;-53
2023/08/02 00:57:18;;;;;;;2.40;2.00;;;21.90;46.70;;;;;;5153607;27;20487;-51
2023/08/02 00:59:44;;;;;;;2.30;1.83;;;21.90;46.80;;;;;;5153380;27;20224;-51
2023/08/02 01:02:10;;;;;;;3.40;1.60;;;21.90;46.60;;;;;;5152586;27;20531;-51
2023/08/02 01:04:37;;;;;;;3.83;2.13;;;21.80;46.30;;;;;;5153564;27;20400;-53
2023/08/02 01:07:16;;;;;;;3.23;2.20;;;21.80;47.30;;;;;;5153545;27;20420;-50
2023/08/02 01:10:09;;;;;;;4.20;2.43;;;21.70;47.00;;;;;;5153039;27;20450;-51
2023/08/02 01:12:37;;;;;;;2.80;2.13;;;21.70;46.80;;;;;;5157398;27;20442;-52
2023/08/02 01:15:05;;;;;;;2.60;2.00;;;21.60;46.70;;;;;;5157607;27;20403;-54
2023/08/02 01:17:32;;;;;;;2.43;2.20;;;21.70;46.20;;;;;;5157574;27;20426;-51
2023/08/02 01:20:03;;;;;;;2.47;2.17;;;21.70;46.70;;;;;;5157138;27;20447;-54
2023/08/02 01:22:29;;;;;;;4.57;2.13;;;21.60;47.10;;;;;;5157502;27;20403;-51
2023/08/02 01:24:59;;;;;;;2.53;2.00;;;21.70;47.00;;;;;;5157461;27;20506;-52
2023/08/02 01:27:33;;;;;;;2.27;1.83;;;21.60;46.90;;;;;;5157376;27;20430;-53
2023/08/02 01:30:01;;;;;;;3.03;1.90;;;21.60;46.90;;;;;;5157051;27;20485;-53
2023/08/02 01:32:27;;;;;;;2.90;1.87;;;21.50;46.60;;;;;;5157466;27;20475;-50
2023/08/02 01:34:54;;;;;;;2.93;1.93;;;21.50;46.90;;;;;;5157293;27;21075;-53
2023/08/02 01:37:20;;;;;;;2.13;1.70;;;21.50;46.90;;;;;;5157153;27;20418;-52
2023/08/02 01:39:46;;;;;;;3.17;2.23;;;21.40;46.80;;;;;;5156822;27;20427;-50
2023/08/02 01:42:12;;;;;;;5.27;2.37;;;21.40;47.00;;;;;;5157156;27;20399;-52
2023/08/02 01:44:37;;;;;;;2.63;2.00;;;21.30;46.90;;;;;;5157067;27;20643;-53
2023/08/02 01:47:03;;;;;;;3.47;1.83;;;21.30;46.90;;;;;;5156952;27;20257;-50
2023/08/02 01:49:29;;;;;;;2.93;1.40;;;21.20;46.60;;;;;;5156615;27;20201;-53
2023/08/02 01:51:55;;;;;;;6.60;1.73;;;21.20;47.10;;;;;;5155618;27;20403;-53
2023/08/02 01:54:21;;;;;;;3.17;1.97;;;21.20;47.40;;;;;;5155564;27;20912;-51
2023/08/02 01:56:46;;;;;;;5.53;2.10;;;21.20;47.60;;;;;;5156873;27;20253;-50
2023/08/02 01:59:12;;;;;;;2.00;1.77;;;21.30;47.50;;;;;;5155085;27;20185;-52
2023/08/02 02:01:39;;;;;;;3.50;2.03;;;21.20;47.50;;;;;;5156725;27;20182;-53
2023/08/02 02:04:05;;;;;;;3.17;1.77;;;21.20;46.70;;;;;;5157038;27;20597;-50
2023/08/02 02:06:30;;;;;;;3.20;2.30;;;21.20;47.10;;;;;;5156650;27;20423;-52
2023/08/02 02:08:56;;;;;;;3.47;1.67;;;21.30;47.20;;;;;;5156490;27;20170;-53
2023/08/02 02:11:22;;;;;;;3.10;2.30;;;21.30;47.00;;;;;;5156282;27;20599;-51
2023/08/02 02:13:49;;;;;;;5.43;2.10;;;21.30;47.40;;;;;;5156507;27;20194;-54
2023/08/02 02:16:15;;;;;;;3.60;2.17;;;21.30;47.40;;;;;;5156645;27;20418;-51
2023/08/02 02:18:40;;;;;;;2.80;2.40;;;21.30;47.60;;;;;;5156422;27;20399;-51
2023/08/02 02:21:06;;;;;;;3.20;2.40;;;21.30;47.60;;;;;;5155876;27;20426;-53
2023/08/02 02:23:32;;;;;;;3.30;2.13;;;21.30;47.50;;;;;;5156032;27;20166;-53
2023/08/02 02:25:58;;;;;;;3.13;1.53;;;21.40;46.90;;;;;;5155044;27;20174;-51
2023/08/02 02:28:24;;;;;;;4.50;2.50;;;21.40;47.10;;;;;;5156280;27;20403;-53
2023/08/02 02:30:50;;;;;;;2.13;1.70;;;21.40;47.20;;;;;;5155786;27;20338;-53
2023/08/02 02:33:16;;;;;;;1.80;1.50;;;21.40;46.60;;;;;;5154834;27;20776;-51
2023/08/02 02:35:41;;;;;;;3.57;2.40;;;21.40;46.90;;;;;;5156072;27;20809;-51
2023/08/02 02:38:07;;;;;;;4.07;2.13;;;21.40;47.30;;;;;;5156066;27;20504;-53
2023/08/02 02:40:33;;;;;;;3.30;1.97;;;21.40;47.20;;;;;;5154371;27;20221;-53
2023/08/02 02:42:59;;;;;;;4.30;2.40;;;21.40;47.10;;;;;;5155945;27;20170;-50
2023/08/02 02:45:24;;;;;;;4.80;2.10;;;21.40;47.40;;;;;;5155852;27;20224;-53
2023/08/02 02:47:50;;;;;;;4.80;2.10;;;21.40;47.50;;;;;;5155948;27;20166;-51
2023/08/02 02:50:18;;;;;;;3.40;2.40;;;21.40;47.50;;;;;;5154185;27;20205;-52
2023/08/02 02:52:43;;;;;;;3.73;2.50;;;21.40;47.40;;;;;;5154410;27;20422;-53
2023/08/02 02:55:09;;;;;;;5.40;2.20;;;21.40;47.30;;;;;;5155732;27;20407;-50
2023/08/02 02:57:35;;;;;;;2.60;2.23;;;21.40;47.30;;;;;;5155604;27;20170;-51
2023/08/02 03:00:01;;;;;;;4.47;2.57;;;21.40;47.30;;;;;;5153941;27;20940;-55
2023/08/02 03:02:27;;;;;;;4.03;2.30;;;21.40;47.40;;;;;;5154238;27;20416;-52
2023/08/02 03:04:53;;;;;;;8.07;2.47;;;21.50;47.40;;;;;;5155522;27;20422;-50
2023/08/02 03:07:18;;;;;;;2.67;1.90;;;21.50;47.10;;;;;;5155446;27;20170;-55
2023/08/02 03:09:44;;;;;;;3.83;2.10;;;21.40;46.90;;;;;;5155024;27;20205;-53
2023/08/02 03:12:10;;;;;;;4.30;2.70;;;21.50;47.10;;;;;;5155347;27;20550;-52
2023/08/02 03:14:36;;;;;;;2.80;1.80;;;21.50;47.50;;;;;;5153954;27;20185;-50
2023/08/02 03:17:02;;;;;;;6.07;2.30;;;21.50;47.30;;;;;;5155285;27;20181;-51
2023/08/02 03:19:27;;;;;;;3.47;2.53;;;21.50;47.00;;;;;;5154965;27;20585;-50
2023/08/02 03:21:53;;;;;;;6.43;3.00;;;21.50;46.70;;;;;;5155144;27;20165;-49
2023/08/02 03:24:19;;;;;;;2.20;1.60;;;21.50;46.70;;;;;;5153905;27;20174;-52
2023/08/02 03:26:45;;;;;;;4.07;2.67;;;21.60;46.60;;;;;;5153732;27;20181;-50
2023/08/02 03:29:10;;;;;;;4.07;2.17;;;21.50;46.20;;;;;;5154652;27;20193;-49
2023/08/02 03:31:36;;;;;;;4.00;2.87;;;21.50;46.00;;;;;;5154899;27;20241;-52
2023/08/02 03:34:02;;;;;;;2.77;2.07;;;21.50;45.70;;;;;;5152789;27;20177;-52
2023/08/02 03:36:28;;;;;;;3.07;2.17;;;21.50;45.70;;;;;;5154846;27;20395;-51
2023/08/02 03:38:54;;;;;;;4.03;2.30;;;21.50;46.00;;;;;;5154827;27;20208;-50
2023/08/02 03:41:20;;;;;;;7.83;2.50;;;21.60;45.70;;;;;;5153123;27;20182;-53
2023/08/02 03:43:45;;;;;;;4.07;2.17;;;21.60;45.70;;;;;;5154646;27;20196;-51
2023/08/02 03:46:11;;;;;;;3.43;2.07;;;21.60;45.40;;;;;;5154717;27;20967;-51
2023/08/02 03:48:37;;;;;;;3.40;2.03;;;21.50;45.50;;;;;;5154645;27;20711;-54
2023/08/02 03:51:03;;;;;;;3.10;2.03;;;21.50;45.10;;;;;;5154213;27;20804;-49
2023/08/02 03:53:30;;;;;;;3.07;2.20;;;21.50;44.50;;;;;;5154594;27;20258;-50
2023/08/02 03:55:56;;;;;;;4.03;2.47;;;21.50;44.40;;;;;;5154422;27;20403;-54
2023/08/02 03:58:22;;;;;;;3.20;2.03;;;21.40;44.70;;;;;;5154411;27;20406;-52
2023/08/02 04:00:48;;;;;;;2.60;1.67;;;21.40;45.20;;;;;;5154061;27;20224;-54
2023/08/02 04:03:14;;;;;;;3.97;2.40;;;21.40;45.40;;;;;;5154484;27;20764;-54
2023/08/02 04:05:39;;;;;;;7.83;2.73;;;21.40;45.10;;;;;;5154371;27;20403;-52
2023/08/02 04:08:05;;;;;;;6.40;3.00;;;21.40;45.20;;;;;;5154303;27;20400;-51
2023/08/02 04:10:37;;;;;;;4.93;2.23;;;21.40;45.70;;;;;;5153822;27;20637;-54
2023/08/02 04:13:04;;;;;;;2.80;1.63;;;21.50;46.00;;;;;;5154359;27;20162;-52
2023/08/02 04:15:31;;;;;;;4.63;2.17;;;21.40;46.10;;;;;;5154159;27;20423;-52
2023/08/02 04:17:57;;;;;;;4.33;2.13;;;21.50;45.80;;;;;;5154151;27;20478;-51
2023/08/02 04:20:23;;;;;;;4.13;2.13;;;21.50;45.90;;;;;;5153719;27;20958;-50
2023/08/02 04:22:49;;;;;;;4.53;1.87;;;21.40;45.60;;;;;;5152832;27;20439;-52
2023/08/02 04:25:16;;;;;;;4.47;2.20;;;21.40;46.00;;;;;;5153941;27;20407;-51
2023/08/02 04:27:42;;;;;;;2.10;1.70;;;21.40;46.40;;;;;;5153962;27;20441;-51
2023/08/02 04:30:09;;;;;;;2.70;1.90;;;21.50;46.60;;;;;;5153559;27;20442;-53
2023/08/02 04:32:35;;;;;;;2.30;2.10;;;21.50;46.80;;;;;;5153919;27;20399;-51
2023/08/02 04:35:01;;;;;;;3.40;2.07;;;21.50;47.10;;;;;;5153849;27;20399;-51
2023/08/02 04:37:28;;;;;;;4.00;2.00;;;21.50;46.70;;;;;;5152527;27;20908;-51
2023/08/02 04:39:54;;;;;;;3.80;1.90;;;21.50;46.50;;;;;;5153381;27;20434;-53
2023/08/02 04:42:19;;;;;;;3.60;2.00;;;21.60;46.00;;;;;;5153773;27;20395;-52
2023/08/02 04:44:45;;;;;;;3.10;2.13;;;21.70;45.70;;;;;;5153576;27;20177;-51
2023/08/02 04:47:11;;;;;;;4.17;2.37;;;21.80;44.80;;;;;;5153718;27;20169;-53
2023/08/02 04:49:37;;;;;;;5.03;2.10;;;21.80;45.20;;;;;;5152019;27;20206;-52
2023/08/02 04:52:03;;;;;;;3.87;2.20;;;21.90;45.10;;;;;;5153675;27;20578;-50
2023/08/02 04:54:28;;;;;;;2.43;2.20;;;21.90;44.70;;;;;;5153492;27;20185;-51
2023/08/02 04:56:54;;;;;;;2.03;1.67;;;22.00;45.00;;;;;;5153637;27;20455;-50
2023/08/02 04:59:21;;;;;;;6.10;3.10;;;22.00;44.80;;;;;;5153245;27;20260;-53
2023/08/02 05:01:47;;;;;;;10.40;2.80;;;22.10;44.70;;;;;;5153601;27;20202;-51
2023/08/02 05:04:13;;;;;;;4.10;2.13;;;22.10;44.70;;;;;;5153507;27;20407;-52
2023/08/02 05:06:39;;;;;;;4.77;2.10;;;22.20;44.80;;;;;;5152210;27;20515;-52
2023/08/02 05:09:05;;;;;;;3.90;2.03;;;22.20;44.50;;;;;;5153240;27;20448;-52
2023/08/02 05:11:31;;;;;;;3.80;2.03;;;22.20;44.50;;;;;;5153352;27;20479;-53
2023/08/02 05:13:58;;;;;;;3.23;1.63;;;22.20;44.50;;;;;;5153565;27;20403;-51
2023/08/02 05:16:24;;;;;;;4.73;1.90;;;22.20;44.50;;;;;;5152115;27;20407;-50
2023/08/02 05:18:50;;;;;;;2.87;1.90;;;22.30;44.70;;;;;;5152036;27;20399;-53
2023/08/02 05:21:16;;;;;;;2.80;1.70;;;22.30;44.50;;;;;;5153122;27;20483;-51
2023/08/02 05:23:43;;;;;;;2.57;1.60;;;22.30;44.50;;;;;;5153294;27;20170;-50
2023/08/02 05:26:09;;;;;;;3.33;2.03;;;22.30;44.80;;;;;;5153345;27;20391;-54
2023/08/02 05:28:36;;;;;;;4.00;2.10;;;22.40;44.70;;;;;;5153378;27;20395;-54
2023/08/02 05:31:02;;;;;;;4.00;2.73;;;22.40;44.60;;;;;;5152876;27;20447;-52
2023/08/02 05:33:28;;;;;;;2.83;2.00;;;22.40;43.80;;;;;;5153228;27;20813;-51
2023/08/02 05:35:54;;;;;;;3.63;1.90;;;22.50;43.70;;;;;;5153241;27;20407;-54
2023/08/02 05:38:20;;;;;;;3.33;2.30;;;22.40;43.60;;;;;;5153201;27;20761;-53
2023/08/02 05:40:46;;;;;;;6.30;3.40;;;22.40;43.90;;;;;;5153051;27;20514;-51
2023/08/02 05:43:12;;;;;;;6.37;2.20;;;22.50;43.30;;;;;;5153232;27;20959;-53
2023/08/02 05:45:38;;;;;;;3.10;2.07;;;22.50;43.70;;;;;;5153146;27;20170;-51
2023/08/02 05:48:04;;;;;;;4.63;2.43;;;22.50;44.00;;;;;;5153080;27;20478;-52
2023/08/02 05:50:31;;;;;;;6.87;2.30;;;22.50;44.20;;;;;;5151331;27;20447;-54
2023/08/02 05:52:57;;;;;;;7.83;2.53;;;22.40;44.00;;;;;;5153089;27;20486;-51
2023/08/02 05:55:23;;;;;;;4.53;2.87;;;22.40;44.10;;;;;;5151801;27;20502;-53
2023/08/02 05:57:49;;;;;;;3.33;2.23;;;22.40;44.40;;;;;;5155430;27;20184;-54
2023/08/02 06:00:15;;;;;;;4.73;2.13;;;22.30;44.60;;;;;;5156427;27;20319;-51
2023/08/02 06:02:41;;;;;;;4.37;2.40;;;22.30;44.70;;;;;;5156729;27;20169;-51
2023/08/02 06:05:07;;;;;;;3.60;2.30;;;22.30;44.80;;;;;;5156626;27;20407;-53
2023/08/02 06:07:33;;;;;;;4.17;2.20;;;22.30;45.20;;;;;;5156693;27;20402;-50
2023/08/02 06:09:59;;;;;;;4.67;2.30;;;22.30;45.00;;;;;;5156216;27;20442;-51
2023/08/02 06:12:25;;;;;;;3.97;2.30;;;22.30;45.30;;;;;;5156494;27;20426;-52
2023/08/02 06:14:51;;;;;;;3.90;2.27;;;22.40;45.20;;;;;;5156433;27;20400;-51
2023/08/02 06:17:17;;;;;;;5.40;2.70;;;22.50;45.40;;;;;;5156394;27;20249;-51
2023/08/02 06:19:43;;;;;;;3.80;2.80;;;22.50;45.20;;;;;;5155967;27;20182;-53
2023/08/02 06:22:09;;;;;;;3.60;2.57;;;22.60;44.80;;;;;;5156352;27;20399;-51
2023/08/02 06:24:35;;;;;;;3.10;2.40;;;22.60;45.00;;;;;;5156205;27;20162;-51
2023/08/02 06:27:00;;;;;;;5.83;2.90;;;22.70;45.50;;;;;;5156278;27;20415;-53
2023/08/02 06:29:26;;;;;;;6.13;2.63;;;22.70;44.70;;;;;;5155882;27;20962;-51
2023/08/02 06:31:52;;;;;;;5.33;2.83;;;22.70;44.80;;;;;;5156082;27;20237;-50
2023/08/02 06:34:18;;;;;;;6.10;3.70;;;22.80;45.60;;;;;;5156073;27;20730;-52
2023/08/02 06:36:44;;;;;;;9.40;4.37;;;22.80;44.90;;;;;;5156061;27;20170;-52
2023/08/02 06:39:09;;;;;;;8.73;4.37;;;22.90;44.90;;;;;;5155809;27;20211;-51
2023/08/02 06:41:35;;;;;;;7.50;3.63;;;22.90;44.30;;;;;;5155858;27;20404;-51
2023/08/02 06:44:01;;;;;;;4.37;3.20;;;22.90;44.40;;;;;;5156143;27;20168;-52
2023/08/02 06:46:29;;;;;;;6.30;3.87;;;22.90;44.40;;;;;;5155824;27;20168;-53
2023/08/02 06:48:55;;;;;;;5.73;4.10;;;23.00;43.90;;;;;;5155679;27;20177;-52
2023/08/02 06:51:21;;;;;;;5.40;3.80;;;23.10;44.90;;;;;;5155540;27;21213;-54
2023/08/02 06:53:46;;;;;;;4.60;3.17;;;23.20;44.40;;;;;;5155759;27;20572;-54
2023/08/02 06:56:14;;;;;;;7.43;4.10;;;23.30;44.20;;;;;;5155706;27;20173;-52
2023/08/02 06:58:40;;;;;;;7.23;3.67;;;23.40;43.70;;;;;;5155635;27;20166;-57
2023/08/02 07:01:17;;;;;;;5.63;3.00;;;23.50;43.90;;;;;;5155138;27;20435;-54
2023/08/02 07:03:43;;;;;;;4.70;3.53;;;23.60;43.60;;;;;;5155536;27;21031;-51
2023/08/02 07:06:19;;;;;;;5.43;3.63;;;23.70;43.50;;;;;;5155547;27;20403;-52
2023/08/02 07:08:46;;;;;;;4.53;2.93;;;23.80;44.50;;;;;;5155488;27;20399;-54
2023/08/02 07:11:12;;;;;;;5.07;2.87;;;23.90;44.00;;;;;;5154968;27;20816;-50
2023/08/02 07:13:42;;;;;;;4.90;1.97;;;24.00;42.60;;;;;;5154071;27;20502;-53
2023/08/02 07:16:07;;;;;;;3.43;2.53;;;24.20;43.20;;;;;;5155171;27;20395;-52
2023/08/02 07:18:33;;;;;;;7.27;2.67;;;24.30;42.20;;;;;;5155316;27;20391;-52
2023/08/02 07:21:05;;;;;;;3.77;2.70;;;24.30;41.70;;;;;;5154885;27;20182;-52
2023/08/02 07:23:31;;;;;;;4.10;2.60;;;24.30;41.10;;;;;;5155082;27;20642;-55
2023/08/02 07:25:57;;;;;;;5.57;2.80;;;24.40;41.70;;;;;;5153819;27;20399;-51
2023/08/02 07:28:23;;;;;;;4.20;3.00;;;24.40;42.10;;;;;;5154974;27;20398;-53
2023/08/02 07:30:49;;;;;;;3.20;2.50;;;24.50;42.50;;;;;;5154454;27;20450;-54
2023/08/02 07:33:15;;;;;;;5.07;3.23;;;24.60;41.80;;;;;;5155060;27;20166;-51
2023/08/02 07:35:41;;;;;;;2.50;1.90;;;24.60;42.00;;;;;;5153559;27;20473;-50
2023/08/02 07:38:07;;;;;;;3.70;2.83;;;24.70;41.10;;;;;;5154939;27;20407;-51
2023/08/02 07:40:33;;;;;;;3.40;2.10;;;24.70;41.70;;;;;;5154526;27;20502;-53
2023/08/02 07:42:59;;;;;;;3.90;2.60;;;24.70;41.40;;;;;;5154733;27;20170;-50
2023/08/02 07:45:25;;;;;;;5.10;3.10;;;24.80;41.30;;;;;;5154729;27;20403;-51
2023/08/02 07:47:50;;;;;;;4.60;2.60;;;24.80;40.70;;;;;;5154782;27;20403;-53
2023/08/02 07:50:16;;;;;;;5.03;2.93;;;24.70;40.30;;;;;;5154359;27;20439;-53
2023/08/02 07:52:42;;;;;;;4.20;2.40;;;24.70;39.90;;;;;;5154613;27;20244;-50
2023/08/02 07:55:08;;;;;;;3.67;2.83;;;24.70;41.20;;;;;;5154600;27;20233;-54
2023/08/02 07:57:34;;;;;;;7.83;2.50;;;24.80;40.50;;;;;;5154526;27;20157;-51
2023/08/02 08:00:00;;;;;;;4.43;2.50;;;24.90;40.40;;;;;;5152800;27;20441;-50
2023/08/02 08:02:27;;;;;;;2.97;2.13;;;25.00;41.10;;;;;;5154366;27;20403;-53
2023/08/02 08:04:54;;;;;;;3.37;2.70;;;25.10;40.50;;;;;;5154447;27;20410;-54
2023/08/02 08:07:20;;;;;;;4.40;2.53;;;25.20;39.90;;;;;;5154383;27;20396;-50
2023/08/02 08:09:46;;;;;;;5.40;2.23;;;25.20;39.50;;;;;;5153911;27;20447;-52
2023/08/02 08:12:12;;;;;;;4.17;2.47;;;25.20;38.30;;;;;;5154125;27;20980;-53
2023/08/02 08:14:38;;;;;;;5.63;2.37;;;25.20;38.50;;;;;;5154089;27;20387;-51
2023/08/02 08:17:04;;;;;;;4.70;2.40;;;25.20;38.90;;;;;;5154262;27;20403;-52
2023/08/02 08:19:32;;;;;;;3.03;1.80;;;25.30;39.30;;;;;;5153441;27;20814;-54
2023/08/02 08:21:58;;;;;;;3.83;2.90;;;25.30;39.10;;;;;;5154034;27;20410;-55
2023/08/02 08:24:24;;;;;;;2.80;1.87;;;25.40;38.80;;;;;;5154028;27;20482;-50
2023/08/02 08:26:52;;;;;;;4.43;2.50;;;25.50;39.60;;;;;;5153920;27;20635;-49
2023/08/02 08:29:18;;;;;;;5.33;2.60;;;25.60;39.20;;;;;;5152249;27;20280;-49
2023/08/02 08:31:44;;;;;;;5.30;1.97;;;25.70;39.00;;;;;;5152652;27;20809;-52
2023/08/02 08:34:10;;;;;;;4.83;2.90;;;25.70;38.40;;;;;;5153889;27;20222;-53
2023/08/02 08:36:36;;;;;;;3.60;2.50;;;25.80;38.80;;;;;;5153893;27;20222;-50
2023/08/02 08:39:02;;;;;;;5.20;2.70;;;25.70;37.00;;;;;;5152593;27;20407;-49
2023/08/02 08:41:28;;;;;;;5.00;2.50;;;25.50;37.40;;;;;;5153418;27;20415;-53
2023/08/02 08:43:54;;;;;;;4.80;2.40;;;25.50;37.50;;;;;;5153758;27;20526;-53
2023/08/02 08:46:20;;;;;;;2.90;2.10;;;25.70;37.70;;;;;;5153709;27;20413;-51
2023/08/02 08:48:47;;;;;;;4.97;2.30;;;25.70;38.40;;;;;;5153664;27;20647;-51
2023/08/02 08:51:15;;;;;;;3.87;2.70;;;25.80;36.50;;;;;;5153362;27;20451;-54
2023/08/02 08:53:44;;;;;;;5.97;2.87;;;25.80;36.70;;;;;;5153689;27;20436;-53
2023/08/02 08:56:11;;;;;;;4.70;2.23;;;25.80;36.50;;;;;;5153533;27;20395;-50
2023/08/02 08:58:38;;;;;;;3.90;2.63;;;25.80;37.00;;;;;;5153568;27;20460;-52
2023/08/02 09:01:05;;;;;;;4.03;2.20;;;25.90;37.50;;;;;;5153172;27;20431;-51
2023/08/02 09:03:33;;;;;;;4.20;2.50;;;26.10;36.20;;;;;;5153535;27;20395;-51
2023/08/02 09:06:03;;;;;;;2.57;2.17;;;26.10;37.10;;;;;;5153532;27;20395;-54
2023/08/02 09:08:40;;;;;;;5.70;3.00;;;26.20;35.10;;;;;;5153648;27;20726;-53
2023/08/02 09:11:06;;;;;;;3.07;2.30;;;26.10;35.30;;;;;;5153172;27;20447;-51
2023/08/02 09:13:32;;;;;;;3.20;2.30;;;26.10;37.10;;;;;;5153350;27;20919;-50
2023/08/02 09:16:05;;;;;;;4.03;2.53;;;26.10;36.20;;;;;;5152156;27;20404;-53
2023/08/02 09:18:35;;;;;;;2.90;2.10;;;26.20;36.60;;;;;;5153385;27;20211;-52
2023/08/02 09:21:00;;;;;;;5.00;2.70;;;26.30;34.30;;;;;;5152994;27;20958;-50
2023/08/02 09:23:26;;;;;;;2.53;2.00;;;26.20;35.90;;;;;;5153395;27;20403;-53
2023/08/02 09:25:53;;;;;;;3.93;2.60;;;26.30;35.90;;;;;;5153343;27;20165;-49
2023/08/02 09:28:19;;;;;;;3.03;2.20;;;26.40;34.90;;;;;;5153348;27;20398;-49
2023/08/02 09:30:45;;;;;;;3.13;2.17;;;26.50;35.00;;;;;;5151718;27;20447;-54
2023/08/02 09:33:11;;;;;;;3.60;2.27;;;26.60;35.00;;;;;;5156445;27;20257;-52
2023/08/02 09:35:45;;;;;;;7.00;2.83;;;26.60;36.10;;;;;;5157183;27;20215;-51
2023/08/02 09:38:11;;;;;;;3.87;2.00;;;26.80;35.30;;;;;;5157360;27;20169;-53
2023/08/02 09:40:38;;;;;;;5.33;2.50;;;26.80;34.60;;;;;;5156920;27;20430;-50
2023/08/02 09:43:08;;;;;;;3.03;2.63;;;26.90;32.00;;;;;;5157178;27;20166;-53
2023/08/02 09:45:35;;;;;;;4.00;2.77;;;26.90;32.30;;;;;;5157133;27;20407;-52
2023/08/02 09:48:02;;;;;;;4.77;2.40;;;27.00;35.20;;;;;;5157028;27;20399;-51
2023/08/02 09:50:28;;;;;;;3.63;2.80;;;27.10;35.70;;;;;;5156690;27;20490;-53
2023/08/02 09:52:55;;;;;;;5.33;3.20;;;27.20;34.60;;;;;;5157041;27;20486;-51
2023/08/02 09:55:21;;;;;;;5.17;3.60;;;27.30;33.40;;;;;;5156985;27;20407;-51
2023/08/02 09:57:48;;;;;;;3.80;3.23;;;27.40;32.60;;;;;;5156876;27;20502;-53
2023/08/02 10:00:15;;;;;;;6.43;3.30;;;27.40;34.10;;;;;;5156476;27;20438;-51
2023/08/02 10:02:41;;;;;;;3.97;3.40;;;27.50;32.80;;;;;;5156687;27;20908;-54
2023/08/02 10:05:12;;;;;;;5.23;3.90;;;27.50;33.30;;;;;;5156783;27;20400;-52
2023/08/02 10:07:55;;;;;;;5.13;3.77;;;27.70;32.60;;;;;;5156739;27;20402;-51
2023/08/02 10:10:38;;;;;;;8.57;4.67;;;27.80;33.60;;;;;;5156301;27;20458;-53
2023/08/02 10:13:22;;;;;;;5.27;4.77;;;28.00;35.00;;;;;;5156483;27;20411;-51
2023/08/02 10:15:51;;;;;;;4.93;3.07;;;28.10;32.80;;;;;;5156543;27;20424;-52
2023/08/02 10:18:17;;;;;;;5.47;3.10;;;28.10;33.20;;;;;;5156485;27;20441;-54
2023/08/02 10:20:46;;;;;;;4.93;3.73;;;28.10;32.30;;;;;;5156172;27;20498;-51
2023/08/02 10:23:12;;;;;;;4.50;2.93;;;28.10;31.50;;;;;;5156490;27;20922;-51
2023/08/02 10:25:38;;;;;;;4.50;2.50;;;28.00;32.10;;;;;;5156246;27;20407;-54
2023/08/02 10:28:04;;;;;;;3.57;2.70;;;28.00;32.20;;;;;;5156402;27;20177;-54
2023/08/02 10:30:31;;;;;;;5.13;2.90;;;28.00;31.90;;;;;;5155912;27;20455;-53
2023/08/02 10:33:14;;;;;;;6.87;2.87;;;28.00;32.10;;;;;;5156248;27;20963;-54
2023/08/02 10:36:04;;;;;;;3.30;2.93;;;28.00;31.60;;;;;;5156149;27;20399;-51
2023/08/02 10:38:39;;;;;;;7.03;3.43;;;27.90;31.30;;;;;;5153357;27;20426;-55
2023/08/02 10:41:06;;;;;;;3.80;2.23;;;27.80;31.00;;;;;;5155733;27;20422;-52
2023/08/02 10:43:32;;;;;;;5.40;3.10;;;27.70;31.40;;;;;;5155891;27;20768;-52
2023/08/02 10:46:25;;;;;;;4.87;2.63;;;27.50;31.60;;;;;;5156025;27;20403;-53
2023/08/02 10:48:51;;;;;;;4.00;3.07;;;27.50;31.90;;;;;;5155919;27;20154;-52
2023/08/02 10:51:41;;;;;;;5.73;2.77;;;27.40;31.50;;;;;;5155430;27;20808;-54
2023/08/02 10:54:18;;;;;;;4.33;2.60;;;27.40;32.20;;;;;;5155555;27;20399;-52
2023/08/02 10:56:54;;;;;;;3.97;3.03;;;27.30;33.00;;;;;;5155471;27;20865;-52
2023/08/02 10:59:23;;;;;;;4.60;3.00;;;27.40;32.70;;;;;;5155362;27;20924;-54
2023/08/02 11:01:59;;;;;;;4.40;3.10;;;27.40;32.40;;;;;;5155703;27;20414;-52
2023/08/02 11:04:27;;;;;;;3.87;2.70;;;27.40;32.30;;;;;;5155674;27;20774;-54
2023/08/02 11:06:53;;;;;;;3.70;2.37;;;27.40;32.00;;;;;;5155567;27;20404;-51
2023/08/02 11:09:29;;;;;;;6.63;3.60;;;27.50;32.00;;;;;;5155030;27;20485;-51
2023/08/02 11:11:55;;;;;;;4.87;2.80;;;27.60;32.10;;;;;;5155523;27;20157;-53
2023/08/02 11:14:28;;;;;;;7.73;3.00;;;27.60;31.60;;;;;;5155411;27;20531;-50
2023/08/02 11:16:54;;;;;;;3.63;2.83;;;27.60;31.70;;;;;;5155438;27;20172;-53
2023/08/02 11:19:22;;;;;;;4.60;3.40;;;27.60;30.90;;;;;;5155032;27;20479;-54
2023/08/02 11:21:55;;;;;;;6.00;2.80;;;27.50;31.70;;;;;;5155146;27;20798;-52
2023/08/02 11:24:21;;;;;;;4.07;2.93;;;27.50;32.10;;;;;;5155194;27;20406;-51
2023/08/02 11:26:57;;;;;;;5.23;3.10;;;27.40;32.80;;;;;;5155169;27;20776;-53
2023/08/02 11:29:23;;;;;;;2.63;2.20;;;27.50;32.60;;;;;;5154807;27;20391;-50
2023/08/02 11:31:54;;;;;;;2.80;2.50;;;27.50;32.40;;;;;;5155087;27;20438;-54
2023/08/02 11:34:20;;;;;;;4.83;2.70;;;27.40;31.50;;;;;;5155014;27;20387;-53
2023/08/02 11:36:50;;;;;;;4.60;2.80;;;27.30;31.60;;;;;;5154956;27;20468;-53
2023/08/02 11:39:17;;;;;;;7.40;2.33;;;27.20;31.40;;;;;;5154583;27;20398;-50
2023/08/02 11:41:43;;;;;;;4.17;2.27;;;27.10;32.10;;;;;;5154819;27;20396;-54
2023/08/02 11:44:19;;;;;;;4.90;2.93;;;27.20;31.90;;;;;;5154843;27;20424;-50
2023/08/02 11:46:56;;;;;;;3.43;2.10;;;27.10;31.60;;;;;;5154829;27;20828;-55
2023/08/02 11:49:23;;;;;;;3.13;1.90;;;27.00;31.30;;;;;;5154592;27;20410;-51
2023/08/02 11:51:49;;;;;;;4.77;2.13;;;26.90;31.60;;;;;;5154671;27;20407;-54
2023/08/02 11:54:15;;;;;;;4.73;2.73;;;27.00;31.40;;;;;;5153989;27;20400;-53
2023/08/02 11:56:41;;;;;;;3.13;2.13;;;27.00;32.30;;;;;;5154435;27;20409;-51
2023/08/02 11:59:09;;;;;;;4.30;2.30;;;27.00;32.20;;;;;;5154417;27;20411;-51
2023/08/02 12:01:35;;;;;;;5.73;2.33;;;26.90;30.80;;;;;;5154368;27;20411;-54
2023/08/02 12:04:05;;;;;;;3.87;2.13;;;26.90;31.40;;;;;;5154643;27;20493;-53
2023/08/02 12:06:49;;;;;;;6.47;2.30;;;26.80;31.40;;;;;;5154546;27;20478;-54
2023/08/02 12:09:15;;;;;;;5.77;3.33;;;26.90;31.20;;;;;;5154022;27;20392;-52
2023/08/02 12:11:50;;;;;;;2.73;1.90;;;26.70;31.30;;;;;;5154506;27;20762;-54
2023/08/02 12:14:27;;;;;;;3.20;2.47;;;26.70;31.60;;;;;;5154223;27;20410;-54
2023/08/02 12:16:53;;;;;;;3.80;2.67;;;26.70;31.80;;;;;;5154230;27;20498;-50
2023/08/02 12:19:19;;;;;;;3.37;2.03;;;26.60;31.60;;;;;;5153888;27;20494;-54
2023/08/02 12:21:57;;;;;;;3.77;2.07;;;26.60;31.80;;;;;;5154096;27;20205;-50
2023/08/02 12:24:22;;;;;;;4.30;2.20;;;26.50;31.30;;;;;;5153951;27;20407;-54
2023/08/02 12:26:48;;;;;;;4.83;2.57;;;26.40;31.90;;;;;;5154038;27;20411;-52
2023/08/02 12:29:25;;;;;;;4.63;2.73;;;26.50;33.20;;;;;;5153845;27;20166;-51
2023/08/02 12:31:54;;;;;;;5.20;2.17;;;26.50;32.10;;;;;;5153973;27;20156;-54
2023/08/02 12:34:20;;;;;;;8.20;2.33;;;26.40;33.00;;;;;;5153967;27;20404;-52
2023/08/02 12:36:49;;;;;;;11.77;2.57;;;26.60;32.70;;;;;;5153792;27;20915;-53
2023/08/02 12:39:15;;;;;;;4.37;2.60;;;26.60;32.80;;;;;;5153481;27;20554;-51
2023/08/02 12:41:40;;;;;;;3.70;2.20;;;26.60;33.10;;;;;;5153764;27;20400;-51
2023/08/02 12:44:06;;;;;;;4.47;2.60;;;26.60;32.80;;;;;;5153976;27;20176;-55
2023/08/02 12:46:32;;;;;;;6.43;2.77;;;26.60;32.60;;;;;;5153748;27;20523;-51
2023/08/02 12:48:58;;;;;;;3.30;2.33;;;26.60;33.20;;;;;;5153707;27;20240;-55